Time;durP1;ratioP1;P1;durP2;ratioP2;P2;SDS_P1;SDS_P2;PMS_P1;PMS_P2;Temp;Humidity;BMP_temperature;BMP_pressure;BME280_temperature;BME280_humidity;BME280_pressure;Samples;Min_cycle;Max_cycle;Signal;HPM_P1;HPM_P2
2023/05/12 00:01:35;;;;;;;15.10;8.60;;;;;;;-139.84;100.00;61778.28;5025889;28;20037;-74
2023/05/12 00:04:00;;;;;;;11.27;7.67;;;;;;;-139.84;100.00;61778.28;5028012;28;20025;-74
2023/05/12 00:06:26;;;;;;;12.57;7.90;;;;;;;-139.84;100.00;61778.28;5046503;28;20472;-74
2023/05/12 00:08:51;;;;;;;11.67;8.10;;;;;;;-139.84;100.00;61778.28;5024769;28;20025;-74
2023/05/12 00:11:17;;;;;;;10.43;8.77;;;;;;;-139.84;100.00;61778.28;5049453;28;20326;-75
2023/05/12 00:13:42;;;;;;;14.93;9.53;;;;;;;-139.84;100.00;61778.28;5046570;28;20495;-74
2023/05/12 00:16:08;;;;;;;16.00;9.30;;;;;;;-139.84;100.00;61778.28;5028556;28;20376;-74
2023/05/12 00:18:34;;;;;;;14.97;10.60;;;;;;;-139.84;100.00;61778.28;5033030;28;20063;-74
2023/05/12 00:21:00;;;;;;;24.30;9.93;;;;;;;-139.84;100.00;61778.28;5043875;28;20024;-74
2023/05/12 00:23:25;;;;;;;19.33;10.20;;;;;;;-139.84;100.00;61778.28;5046610;28;21347;-75
2023/05/12 00:25:51;;;;;;;12.47;8.57;;;;;;;-139.84;100.00;61778.28;5046394;28;20099;-74
2023/05/12 00:28:17;;;;;;;18.10;8.37;;;;;;;-139.84;100.00;61778.28;5044934;28;20033;-75
2023/05/12 00:30:43;;;;;;;;;;;;;;;-139.84;100.00;61778.28;5047661;28;20527;-73
2023/05/12 00:33:08;;;;;;;10.32;7.05;;;;;;;-139.84;100.00;61778.28;5033463;28;20043;-73
2023/05/12 00:35:34;;;;;;;13.63;6.67;;;;;;;-139.84;100.00;61778.28;5045297;28;20043;-74
2023/05/12 00:37:59;;;;;;;9.63;6.93;;;;;;;-139.84;100.00;61778.28;5050766;28;20415;-73
2023/05/12 00:40:24;;;;;;;11.50;7.17;;;;;;;-139.84;100.00;61778.28;5030870;28;20056;-74
2023/05/12 00:42:50;;;;;;;9.27;6.30;;;;;;;-139.84;100.00;61778.28;5050753;28;20143;-74
2023/05/12 00:45:15;;;;;;;9.50;6.03;;;;;;;-139.84;100.00;61778.28;5028481;28;20021;-74
2023/05/12 00:47:41;;;;;;;10.03;6.60;;;;;;;-139.84;100.00;61778.28;5032227;28;20029;-73
2023/05/12 00:50:10;;;;;;;9.33;6.17;;;;;;;-139.84;100.00;61778.28;5030532;28;20028;-74
2023/05/12 00:52:37;;;;;;;8.18;6.22;;;;;;;-139.84;100.00;61778.28;5043833;28;20091;-74
2023/05/12 00:55:04;;;;;;;10.60;5.95;;;;;;;-139.84;100.00;61778.28;5030227;28;20658;-74
2023/05/12 00:57:30;;;;;;;8.13;5.75;;;;;;;-139.84;100.00;61778.28;5040130;28;20045;-74
2023/05/12 00:59:55;;;;;;;8.13;6.60;;;;;;;-139.84;100.00;61778.28;5038384;28;20033;-74
2023/05/12 01:02:22;;;;;;;8.27;6.43;;;;;;;-139.84;100.00;61778.28;5013159;28;20072;-74
2023/05/12 01:04:48;;;;;;;10.63;7.22;;;;;;;-139.84;100.00;61778.28;5030505;28;20033;-73
2023/05/12 01:07:25;;;;;;;10.20;6.03;;;;;;;-139.84;100.00;61778.28;5040031;28;20764;-74
2023/05/12 01:09:56;;;;;;;11.97;5.60;;;;;;;-139.84;100.00;61778.28;5041459;28;20400;-73
2023/05/12 01:12:26;;;;;;;8.75;6.22;;;;;;;-139.84;100.00;61778.28;5027450;28;20039;-74
2023/05/12 01:14:53;;;;;;;8.40;5.88;;;;;;;-139.84;100.00;61778.28;5024387;28;20033;-74
2023/05/12 01:17:20;;;;;;;;;;;;;;;-139.84;100.00;61778.28;5042054;28;20485;-75
2023/05/12 01:19:55;;;;;;;7.68;4.63;;;;;;;-139.84;100.00;61778.28;5028756;28;19920;-73
2023/05/12 01:22:21;;;;;;;7.68;5.03;;;;;;;-139.84;100.00;61778.28;5042814;28;20048;-73
2023/05/12 01:25:08;;;;;;;7.63;5.20;;;;;;;-139.84;100.00;61778.28;5045091;28;20142;-74
2023/05/12 01:27:38;;;;;;;7.68;4.78;;;;;;;-139.84;100.00;61778.28;5041382;28;20053;-73
2023/05/12 01:30:05;;;;;;;7.43;4.88;;;;;;;-139.84;100.00;61778.28;5037574;28;20071;-74
2023/05/12 01:32:30;;;;;;;7.32;5.50;;;;;;;-139.84;100.00;61778.28;5039508;28;20662;-74
2023/05/12 01:34:56;;;;;;;7.63;5.80;;;;;;;-139.84;100.00;61778.28;5042042;28;20349;-73
2023/05/12 01:37:25;;;;;;;6.70;5.07;;;;;;;-139.84;100.00;61778.28;5021730;28;20033;-74
2023/05/12 01:39:51;;;;;;;7.68;5.22;;;;;;;-139.84;100.00;61778.28;5046301;28;20120;-73
2023/05/12 01:42:16;;;;;;;8.97;5.00;;;;;;;-139.84;100.00;61778.28;5042643;28;20031;-74
2023/05/12 01:44:41;;;;;;;9.77;5.70;;;;;;;-139.84;100.00;61778.28;5044269;28;20067;-73
2023/05/12 01:47:08;;;;;;;8.13;5.73;;;;;;;-139.84;100.00;61778.28;5045368;28;20037;-74
2023/05/12 01:49:34;;;;;;;10.35;6.78;;;;;;;-139.84;100.00;61778.28;5042068;28;20540;-74
2023/05/12 01:52:00;;;;;;;6.67;5.30;;;;;;;-139.84;100.00;61778.28;5030408;28;20112;-74
2023/05/12 01:54:26;;;;;;;11.03;6.03;;;;;;;-139.84;100.00;61778.28;5043252;28;20025;-73
2023/05/12 01:56:51;;;;;;;10.45;6.30;;;;;;;-139.84;100.00;61778.28;5028307;28;20570;-73
2023/05/12 01:59:17;;;;;;;10.13;6.07;;;;;;;-139.84;100.00;61778.28;5030963;28;20028;-73
2023/05/12 02:01:42;;;;;;;7.97;6.17;;;;;;;-139.84;100.00;61778.28;5044409;28;20107;-74
2023/05/12 02:04:08;;;;;;;11.13;6.77;;;;;;;-139.84;100.00;61778.28;5041882;28;20025;-73
2023/05/12 02:06:33;;;;;;;8.57;6.47;;;;;;;-139.84;100.00;61778.28;5044352;28;20408;-74
2023/05/12 02:08:59;;;;;;;8.57;6.27;;;;;;;-139.84;100.00;61778.28;5032276;28;20065;-74
2023/05/12 02:11:25;;;;;;;11.97;6.23;;;;;;;-139.84;100.00;61778.28;5040657;28;20055;-75
2023/05/12 02:13:50;;;;;;;11.00;7.23;;;;;;;-139.84;100.00;61778.28;5043517;28;20029;-75
2023/05/12 02:16:15;;;;;;;8.50;6.70;;;;;;;-139.84;100.00;61778.28;5029578;28;20032;-74
2023/05/12 02:18:41;;;;;;;10.77;6.97;;;;;;;-139.84;100.00;61778.28;5043202;28;20056;-74
2023/05/12 02:21:06;;;;;;;9.97;6.37;;;;;;;-139.84;100.00;61778.28;5043582;28;20033;-75
2023/05/12 02:23:32;;;;;;;10.23;6.87;;;;;;;-139.84;100.00;61778.28;5041510;28;20035;-74
2023/05/12 02:25:57;;;;;;;8.23;6.07;;;;;;;-139.84;100.00;61778.28;5045283;28;20057;-75
2023/05/12 02:28:22;;;;;;;10.37;6.63;;;;;;;-139.84;100.00;61778.28;5047355;28;20046;-74
2023/05/12 02:30:49;;;;;;;10.90;6.83;;;;;;;-139.84;100.00;61778.28;5043672;28;20108;-74
2023/05/12 02:33:16;;;;;;;9.85;6.38;;;;;;;-139.84;100.00;61778.28;5013197;28;20025;-74
2023/05/12 02:35:42;;;;;;;14.68;6.70;;;;;;;-139.84;100.00;61778.28;5027140;28;20871;-75
2023/05/12 02:38:09;;;;;;;13.32;6.38;;;;;;;-139.84;100.00;61778.28;5029530;28;20036;-74
2023/05/12 02:40:35;;;;;;;12.30;6.25;;;;;;;-139.84;100.00;61778.28;5043732;28;20029;-74
2023/05/12 02:43:04;;;;;;;10.00;6.53;;;;;;;-139.84;100.00;61778.28;5029284;28;20017;-73
2023/05/12 02:45:30;;;;;;;10.02;5.75;;;;;;;-139.84;100.00;61778.28;5044549;28;20083;-73
2023/05/12 02:47:56;;;;;;;12.70;6.38;;;;;;;-139.84;100.00;61778.28;5030904;28;20057;-72
2023/05/12 02:50:22;;;;;;;10.07;6.57;;;;;;;-139.84;100.00;61778.28;5025692;28;20036;-72
2023/05/12 02:52:48;;;;;;;9.53;7.27;;;;;;;-139.84;100.00;61778.28;5041633;28;20029;-72
2023/05/12 02:55:13;;;;;;;14.47;7.67;;;;;;;-139.84;100.00;61778.28;5025234;28;20060;-72
2023/05/12 02:57:39;;;;;;;12.37;7.60;;;;;;;-139.84;100.00;61778.28;5044978;28;20458;-72
2023/05/12 03:00:05;;;;;;;10.80;8.23;;;;;;;-139.84;100.00;61778.28;5041649;28;20361;-73
2023/05/12 03:02:35;;;;;;;11.20;7.85;;;;;;;-139.84;100.00;61778.28;5045747;28;20534;-73
2023/05/12 03:05:01;;;;;;;14.35;7.72;;;;;;;-139.84;100.00;61778.28;5042999;28;20032;-73
2023/05/12 03:07:27;;;;;;;11.27;8.77;;;;;;;-139.84;100.00;61778.28;5029300;28;20043;-72
2023/05/12 03:09:53;;;;;;;16.90;7.77;;;;;;;-139.84;100.00;61778.28;5024940;28;20688;-72
2023/05/12 03:12:18;;;;;;;14.53;8.97;;;;;;;-139.84;100.00;61778.28;5042785;28;20056;-73
2023/05/12 03:14:43;;;;;;;10.80;8.60;;;;;;;-139.84;100.00;61778.28;5023138;28;20088;-72
2023/05/12 03:17:11;;;;;;;12.40;9.70;;;;;;;-139.84;100.00;61778.28;5047149;28;20029;-72
2023/05/12 03:19:38;;;;;;;19.85;9.43;;;;;;;-139.84;100.00;61778.28;5005366;28;20037;-72
2023/05/12 03:22:06;;;;;;;13.65;9.45;;;;;;;-139.84;100.00;61778.28;5030077;28;20063;-71
2023/05/12 03:24:32;;;;;;;12.95;8.77;;;;;;;-139.84;100.00;61778.28;5041084;28;20029;-72
2023/05/12 03:27:00;;;;;;;14.40;9.27;;;;;;;-139.84;100.00;61778.28;5030246;28;20491;-72
2023/05/12 03:29:25;;;;;;;11.07;8.95;;;;;;;-139.84;100.00;61778.28;5038740;28;20107;-71
2023/05/12 03:31:51;;;;;;;12.77;9.27;;;;;;;-139.84;100.00;61778.28;5044686;28;20484;-71
2023/05/12 03:34:17;;;;;;;14.43;8.50;;;;;;;-139.84;100.00;61778.28;5044116;28;20052;-71
2023/05/12 03:36:42;;;;;;;11.83;8.37;;;;;;;-139.84;100.00;61778.28;5040709;28;20164;-71
2023/05/12 03:39:08;;;;;;;9.27;7.50;;;;;;;-139.84;100.00;61778.28;5041888;28;20032;-71
2023/05/12 03:41:35;;;;;;;10.35;6.85;;;;;;;-139.84;100.00;61778.28;5045277;28;20122;-71
2023/05/12 03:44:00;;;;;;;11.40;7.17;;;;;;;-139.84;100.00;61778.28;5044790;28;20052;-71
2023/05/12 03:46:26;;;;;;;12.83;7.17;;;;;;;-139.84;100.00;61778.28;5046221;28;20451;-71
2023/05/12 03:48:52;;;;;;;11.10;6.60;;;;;;;-139.84;100.00;61778.28;5021819;28;20033;-71
2023/05/12 03:51:17;;;;;;;9.50;6.43;;;;;;;-139.84;100.00;61778.28;5015467;28;20036;-71
2023/05/12 03:53:46;;;;;;;7.33;6.23;;;;;;;-139.84;100.00;61778.28;5043459;28;20488;-71
2023/05/12 03:56:14;;;;;;;8.18;5.82;;;;;;;-139.84;100.00;61778.28;5028286;28;20435;-71
2023/05/12 03:58:40;;;;;;;11.90;5.90;;;;;;;-139.84;100.00;61778.28;5044603;28;20021;-72
2023/05/12 04:01:05;;;;;;;9.67;6.13;;;;;;;-139.84;100.00;61778.28;5012726;28;20476;-72
2023/05/12 04:03:30;;;;;;;10.63;5.87;;;;;;;-139.84;100.00;61778.28;5043846;28;20358;-72
2023/05/12 04:06:00;;;;;;;8.40;5.63;;;;;;;-139.84;100.00;61778.28;5048742;28;20060;-71
2023/05/12 04:08:26;;;;;;;9.57;6.38;;;;;;;-139.84;100.00;61778.28;5045400;28;20025;-72
2023/05/12 04:10:57;;;;;;;9.18;6.10;;;;;;;-139.84;100.00;61778.28;5029150;28;20028;-71
2023/05/12 04:13:23;;;;;;;10.40;6.13;;;;;;;-139.84;100.00;61778.28;5014273;28;20672;-71
2023/05/12 04:15:50;;;;;;;10.27;6.07;;;;;;;-139.84;100.00;61778.28;5046802;28;20483;-72
2023/05/12 04:18:17;;;;;;;12.30;7.00;;;;;;;-139.84;100.00;61778.28;5046866;28;20037;-73
2023/05/12 04:20:43;;;;;;;11.43;6.63;;;;;;;-139.84;100.00;61778.28;5017876;28;20032;-71
2023/05/12 04:23:08;;;;;;;8.30;6.13;;;;;;;-139.84;100.00;61778.28;5035053;28;20031;-71
2023/05/12 04:25:37;;;;;;;9.87;7.37;;;;;;;-139.84;100.00;61778.28;5029505;28;20489;-71
2023/05/12 04:28:03;;;;;;;10.52;7.15;;;;;;;-139.84;100.00;61778.28;5033642;28;20557;-71
2023/05/12 04:30:28;;;;;;;7.33;6.43;;;;;;;-139.84;100.00;61778.28;5048658;28;20029;-71
2023/05/12 04:32:54;;;;;;;10.23;7.13;;;;;;;-139.84;100.00;61778.28;5043855;28;20400;-71
2023/05/12 04:35:19;;;;;;;12.00;7.47;;;;;;;-139.84;100.00;61778.28;5047322;28;20025;-71
2023/05/12 04:37:45;;;;;;;8.10;7.23;;;;;;;-139.84;100.00;61778.28;5024297;28;20033;-70
2023/05/12 04:40:11;;;;;;;12.25;8.13;;;;;;;-139.84;100.00;61778.28;5011443;28;20032;-71
2023/05/12 04:42:36;;;;;;;11.67;7.67;;;;;;;-139.84;100.00;61778.28;5044959;28;20032;-71
2023/05/12 04:45:02;;;;;;;9.52;7.40;;;;;;;-139.84;100.00;61778.28;5044583;28;20035;-71
2023/05/12 04:47:28;;;;;;;12.83;8.50;;;;;;;-139.84;100.00;61778.28;5032981;28;20114;-71
2023/05/12 04:49:53;;;;;;;9.93;8.07;;;;;;;-139.84;100.00;61778.28;5043812;28;20017;-71
2023/05/12 04:52:20;;;;;;;13.77;7.73;;;;;;;-139.84;100.00;61778.28;5047016;28;20067;-71
2023/05/12 04:54:45;;;;;;;12.10;8.35;;;;;;;-139.84;100.00;61778.28;5033492;28;20102;-71
2023/05/12 04:57:11;;;;;;;9.27;7.43;;;;;;;-139.84;100.00;61778.28;5046692;28;20782;-71
2023/05/12 04:59:37;;;;;;;8.40;7.33;;;;;;;-139.84;100.00;61778.28;5047863;28;20033;-71
2023/05/12 05:02:04;;;;;;;;;;;;;;;-139.84;100.00;61778.28;5045638;28;20033;-71
2023/05/12 05:04:30;;;;;;;12.20;8.73;;;;;;;-139.84;100.00;61778.28;5047742;28;19999;-72
2023/05/12 05:06:57;;;;;;;11.57;9.37;;;;;;;-139.84;100.00;61778.28;5025155;28;20037;-71
2023/05/12 05:09:22;;;;;;;11.27;9.60;;;;;;;-139.84;100.00;61778.28;5048634;28;20024;-72
2023/05/12 05:11:47;;;;;;;13.10;9.63;;;;;;;-139.84;100.00;61778.28;5045686;28;20040;-72
2023/05/12 05:14:13;;;;;;;11.90;9.50;;;;;;;-139.84;100.00;61778.28;5046676;28;20061;-72
2023/05/12 05:16:38;;;;;;;12.17;10.50;;;;;;;-139.84;100.00;61778.28;5049566;28;20506;-72
2023/05/12 05:19:04;;;;;;;12.87;10.27;;;;;;;-139.84;100.00;61778.28;5040913;28;20032;-72
2023/05/12 05:21:29;;;;;;;17.50;11.27;;;;;;;-139.84;100.00;61778.28;5048633;28;20037;-71
2023/05/12 05:23:54;;;;;;;17.43;11.10;;;;;;;-139.84;100.00;61778.28;5044910;28;20056;-72
2023/05/12 05:26:20;;;;;;;18.33;12.17;;;;;;;-139.84;100.00;61778.28;5049012;28;20067;-71
2023/05/12 05:28:46;;;;;;;19.30;12.00;;;;;;;-139.84;100.00;61778.28;5023106;28;20406;-72
2023/05/12 05:31:17;;;;;;;24.47;13.23;;;;;;;-139.84;100.00;61778.28;5047617;28;20438;-71
2023/05/12 05:33:43;;;;;;;19.45;13.02;;;;;;;-139.84;100.00;61778.28;5045242;28;20033;-71
2023/05/12 05:36:09;;;;;;;23.38;14.27;;;;;;;-139.84;100.00;61778.28;5043890;28;20384;-72
2023/05/12 05:38:35;;;;;;;22.03;15.17;;;;;;;-139.84;100.00;61778.28;5044081;28;20033;-72
2023/05/12 05:41:00;;;;;;;24.40;15.97;;;;;;;-139.84;100.00;61778.28;5047746;28;20053;-72
2023/05/12 05:43:25;;;;;;;33.07;15.87;;;;;;;-139.84;100.00;61778.28;5046359;28;20035;-72
2023/05/12 05:45:51;;;;;;;27.57;16.97;;;;;;;-139.84;100.00;61778.28;5041979;28;20032;-72
2023/05/12 05:48:17;;;;;;;31.60;19.63;;;;;;;-139.84;100.00;61778.28;5047740;28;20028;-72
2023/05/12 05:50:43;;;;;;;31.43;19.17;;;;;;;-139.84;100.00;61778.28;5030393;28;20024;-72
2023/05/12 05:53:08;;;;;;;32.30;19.47;;;;;;;-139.84;100.00;61778.28;5045879;28;20056;-72
2023/05/12 05:55:33;;;;;;;29.23;18.50;;;;;;;-139.84;100.00;61778.28;5044255;28;20035;-72
2023/05/12 05:57:59;;;;;;;30.73;17.67;;;;;;;-139.84;100.00;61778.28;5045310;28;20452;-72
2023/05/12 06:00:24;;;;;;;31.27;19.17;;;;;;;-139.84;100.00;61778.28;5025003;28;20031;-72
2023/05/12 06:02:50;;;;;;;32.37;19.43;;;;;;;-139.84;100.00;61778.28;5044605;28;20488;-72
2023/05/12 06:05:15;;;;;;;34.27;20.40;;;;;;;-139.84;100.00;61778.28;5045516;28;20021;-72
2023/05/12 06:07:40;;;;;;;31.83;19.83;;;;;;;-139.84;100.00;61778.28;5043498;28;20037;-71
2023/05/12 06:10:06;;;;;;;30.37;19.33;;;;;;;-139.84;100.00;61778.28;5025380;28;20071;-72
2023/05/12 06:12:32;;;;;;;30.57;20.57;;;;;;;-139.84;100.00;61778.28;5031867;28;20029;-71
2023/05/12 06:14:57;;;;;;;29.40;18.47;;;;;;;-139.84;100.00;61778.28;5042843;28;20816;-71
2023/05/12 06:17:22;;;;;;;33.37;19.40;;;;;;;-139.84;100.00;61778.28;5044570;28;20025;-72
2023/05/12 06:19:49;;;;;;;33.90;20.47;;;;;;;-139.84;100.00;61778.28;5044205;28;20036;-72
2023/05/12 06:22:14;;;;;;;31.17;20.38;;;;;;;-139.84;100.00;61778.28;5024291;28;20020;-72
2023/05/12 06:24:40;;;;;;;35.27;20.77;;;;;;;-139.84;100.00;61778.28;5044756;28;20079;-72
2023/05/12 06:27:06;;;;;;;34.17;21.40;;;;;;;-139.84;100.00;61778.28;5045820;28;20176;-72
2023/05/12 06:29:32;;;;;;;32.03;20.40;;;;;;;-139.84;100.00;61778.28;5042890;28;20077;-72
2023/05/12 06:31:57;;;;;;;33.22;19.83;;;;;;;-139.84;100.00;61778.28;5045586;28;20481;-72
2023/05/12 06:34:23;;;;;;;36.73;21.10;;;;;;;-139.84;100.00;61778.28;5045685;28;20040;-72
2023/05/12 06:36:48;;;;;;;33.50;20.13;;;;;;;-139.84;100.00;61778.28;5041881;28;20489;-76
2023/05/12 06:39:14;;;;;;;33.53;20.90;;;;;;;-139.84;100.00;61778.28;5027711;28;20370;-76
2023/05/12 06:41:40;;;;;;;35.33;20.88;;;;;;;-139.84;100.00;61778.28;5041657;28;20033;-75
2023/05/12 06:44:08;;;;;;;33.63;20.73;;;;;;;-139.84;100.00;61778.28;5045326;28;20033;-75
2023/05/12 06:46:33;;;;;;;30.17;19.67;;;;;;;-139.84;100.00;61778.28;5041941;28;20400;-76
2023/05/12 06:48:59;;;;;;;29.80;20.77;;;;;;;-139.84;100.00;61778.28;5030469;28;20033;-75
2023/05/12 06:51:25;;;;;;;38.07;21.70;;;;;;;-139.84;100.00;61778.28;5027605;28;20114;-76
2023/05/12 06:53:50;;;;;;;37.60;22.10;;;;;;;-139.84;100.00;61778.28;5025493;28;20027;-75
2023/05/12 06:56:16;;;;;;;34.03;22.40;;;;;;;-139.84;100.00;61778.28;5045232;28;20024;-76
2023/05/12 06:58:45;;;;;;;33.43;22.30;;;;;;;-139.84;100.00;61778.28;5042013;28;20392;-76
2023/05/12 07:01:10;;;;;;;36.67;21.33;;;;;;;-139.84;100.00;61778.28;5050315;28;20504;-76
2023/05/12 07:03:36;;;;;;;38.90;21.50;;;;;;;-139.84;100.00;61778.28;5047507;28;20060;-73
2023/05/12 07:06:01;;;;;;;35.13;21.63;;;;;;;-139.84;100.00;61778.28;5049543;28;20392;-75
2023/05/12 07:08:26;;;;;;;34.00;20.30;;;;;;;-139.84;100.00;61778.28;5047293;28;20063;-75
2023/05/12 07:10:52;;;;;;;40.30;23.13;;;;;;;-139.84;100.00;61778.28;5042909;28;20024;-76
2023/05/12 07:13:17;;;;;;;35.23;21.83;;;;;;;-139.84;100.00;61778.28;5045224;28;20033;-75
2023/05/12 07:15:43;;;;;;;40.47;22.60;;;;;;;-139.84;100.00;61778.28;5043152;28;20024;-76
2023/05/12 07:18:09;;;;;;;33.27;22.53;;;;;;;-139.84;100.00;61778.28;5042546;28;20416;-75
2023/05/12 07:20:34;;;;;;;36.73;21.50;;;;;;;-139.84;100.00;61778.28;5047188;28;20032;-74
2023/05/12 07:22:59;;;;;;;37.87;21.17;;;;;;;-139.84;100.00;61778.28;5033470;28;20021;-74
2023/05/12 07:25:25;;;;;;;32.87;21.10;;;;;;;-139.84;100.00;61778.28;5027628;28;20112;-75
2023/05/12 07:27:50;;;;;;;32.93;22.13;;;;;;;-139.84;100.00;61778.28;5047038;28;20053;-75
2023/05/12 07:30:16;;;;;;;33.70;21.83;;;;;;;-139.84;100.00;61778.28;5032343;28;20039;-75
2023/05/12 07:32:41;;;;;;;34.27;21.63;;;;;;;-139.84;100.00;61778.28;5048188;28;20029;-74
2023/05/12 07:35:08;;;;;;;33.03;21.57;;;;;;;-139.84;100.00;61778.28;5030308;28;20029;-74
2023/05/12 07:37:33;;;;;;;36.42;22.83;;;;;;;-139.84;100.00;61778.28;5030980;28;20192;-75
2023/05/12 07:39:59;;;;;;;32.00;21.70;;;;;;;-139.84;100.00;61778.28;5048483;28;20170;-74
2023/05/12 07:42:24;;;;;;;36.93;22.33;;;;;;;-139.84;100.00;61778.28;5052194;28;20027;-75
2023/05/12 07:44:50;;;;;;;33.27;22.27;;;;;;;-139.84;100.00;61778.28;5030183;28;20025;-74
2023/05/12 07:47:15;;;;;;;34.23;21.27;;;;;;;-139.84;100.00;61778.28;5047802;28;20039;-75
2023/05/12 07:49:41;;;;;;;34.30;21.70;;;;;;;-139.84;100.00;61778.28;5029920;28;20033;-74
2023/05/12 07:52:06;;;;;;;39.97;22.03;;;;;;;-139.84;100.00;61778.28;5048760;28;20098;-74
2023/05/12 07:54:31;;;;;;;37.13;22.57;;;;;;;-139.84;100.00;61778.28;5049682;28;20029;-74
2023/05/12 07:56:57;;;;;;;32.77;22.20;;;;;;;-139.84;100.00;61778.28;5047498;28;20435;-74
2023/05/12 07:59:22;;;;;;;34.77;22.33;;;;;;;-139.84;100.00;61778.28;5031649;28;20025;-74
2023/05/12 08:01:48;;;;;;;31.20;20.93;;;;;;;-139.84;100.00;61778.28;5049248;28;20056;-74
2023/05/12 08:04:13;;;;;;;32.20;20.13;;;;;;;-139.84;100.00;61778.28;5042257;28;20373;-74
2023/05/12 08:06:39;;;;;;;32.97;20.80;;;;;;;-139.84;100.00;61778.28;5048839;28;20510;-74
2023/05/12 08:09:04;;;;;;;29.03;19.50;;;;;;;-139.84;100.00;61778.28;5045573;28;20579;-74
2023/05/12 08:11:30;;;;;;;33.10;19.93;;;;;;;-139.84;100.00;61778.28;5031717;28;20587;-76
2023/05/12 08:13:55;;;;;;;25.40;19.47;;;;;;;-139.84;100.00;61778.28;5035377;28;20032;-74
2023/05/12 08:16:20;;;;;;;29.50;20.17;;;;;;;-139.84;100.00;61778.28;5050512;28;20025;-75
2023/05/12 08:18:46;;;;;;;23.63;18.30;;;;;;;-139.84;100.00;61778.28;5053661;28;20392;-74
2023/05/12 08:21:11;;;;;;;27.97;19.23;;;;;;;-139.84;100.00;61778.28;5047121;28;20459;-75
2023/05/12 08:23:37;;;;;;;28.47;19.37;;;;;;;-139.84;100.00;61778.28;5032544;28;20043;-74
2023/05/12 08:26:03;;;;;;;25.60;18.40;;;;;;;-139.84;100.00;61778.28;5031058;28;20017;-75
2023/05/12 08:28:29;;;;;;;27.55;18.25;;;;;;;-139.84;100.00;61778.28;5043245;28;20413;-74
2023/05/12 08:30:55;;;;;;;24.48;17.65;;;;;;;-139.84;100.00;61778.28;5031376;28;20056;-74
2023/05/12 08:33:20;;;;;;;23.93;17.13;;;;;;;-139.84;100.00;61778.28;5048128;28;20036;-74
2023/05/12 08:35:46;;;;;;;23.80;16.60;;;;;;;-139.84;100.00;61778.28;5048615;28;20028;-75
2023/05/12 08:38:11;;;;;;;23.80;17.07;;;;;;;-139.84;100.00;61778.28;5028863;28;20120;-74
2023/05/12 08:40:45;;;;;;;21.03;16.30;;;;;;;-139.84;100.00;61778.28;5044406;28;20107;-75
2023/05/12 08:43:25;;;;;;;24.20;16.85;;;;;;;-139.84;100.00;61778.28;5045735;28;20385;-74
2023/05/12 08:45:57;;;;;;;23.70;15.23;;;;;;;-139.84;100.00;61778.28;5029643;28;20127;-74
2023/05/12 08:48:28;;;;;;;21.13;16.02;;;;;;;-139.84;100.00;61778.28;5042423;28;20029;-74
2023/05/12 08:50:54;;;;;;;19.27;14.27;;;;;;;-139.84;100.00;61778.28;5026430;28;20111;-74
2023/05/12 08:53:21;;;;;;;18.15;13.45;;;;;;;-139.84;100.00;61778.28;5025617;28;20033;-76
2023/05/12 08:55:46;;;;;;;;;;;;;;;-139.84;100.00;61778.28;5047504;28;20047;-74
2023/05/12 08:58:14;;;;;;;15.20;12.18;;;;;;;-139.84;100.00;61778.28;5045724;28;19917;-74
2023/05/12 09:00:40;;;;;;;16.08;12.35;;;;;;;-139.84;100.00;61778.28;5045918;28;20116;-73
2023/05/12 09:03:06;;;;;;;17.45;12.57;;;;;;;-139.84;100.00;61778.28;5045504;28;20025;-74
2023/05/12 09:05:32;;;;;;;15.90;11.00;;;;;;;-139.84;100.00;61778.28;5028059;28;20453;-73
2023/05/12 09:07:59;;;;;;;17.77;11.27;;;;;;;-139.84;100.00;61778.28;5048522;28;20028;-74
2023/05/12 09:10:26;;;;;;;12.82;10.52;;;;;;;-139.84;100.00;61778.28;5044321;28;20504;-74
2023/05/12 09:12:54;;;;;;;17.50;10.90;;;;;;;-139.84;100.00;61778.28;5029120;28;20120;-74
2023/05/12 09:15:29;;;;;;;13.60;10.82;;;;;;;-139.84;100.00;61778.28;5029573;28;20664;-73
2023/05/12 09:17:55;;;;;;;15.10;10.95;;;;;;;-139.84;100.00;61778.28;5031029;28;20029;-74
2023/05/12 09:20:20;;;;;;;15.33;10.63;;;;;;;-139.84;100.00;61778.28;5045150;28;20079;-74
2023/05/12 09:22:46;;;;;;;19.40;10.67;;;;;;;-139.84;100.00;61778.28;5047396;28;20047;-74
2023/05/12 09:25:19;;;;;;;12.97;10.73;;;;;;;-139.84;100.00;61778.28;5031242;28;20435;-74
2023/05/12 09:27:52;;;;;;;14.05;10.40;;;;;;;-139.84;100.00;61778.28;5030122;28;20040;-74
2023/05/12 09:30:28;;;;;;;13.27;10.07;;;;;;;-139.84;100.00;61778.28;5046437;28;20515;-74
2023/05/12 09:33:07;;;;;;;11.35;9.82;;;;;;;-139.84;100.00;61778.28;5046489;28;20033;-74
2023/05/12 09:35:40;;;;;;;10.85;9.70;;;;;;;-139.84;100.00;61778.28;5027038;28;20366;-73
2023/05/12 09:38:10;;;;;;;13.32;9.23;;;;;;;-139.84;100.00;61778.28;5045447;28;20052;-73
2023/05/12 09:40:36;;;;;;;10.77;9.10;;;;;;;-139.84;100.00;61778.28;5048438;28;20063;-74
2023/05/12 09:43:05;;;;;;;14.50;9.13;;;;;;;-139.84;100.00;61778.28;5047889;28;20148;-75
2023/05/12 09:45:35;;;;;;;9.30;7.75;;;;;;;-139.84;100.00;61778.28;5032265;28;20024;-75
2023/05/12 09:48:09;;;;;;;8.32;7.43;;;;;;;-139.84;100.00;61778.28;5042619;28;20025;-75
2023/05/12 09:50:51;;;;;;;12.40;7.80;;;;;;;-139.84;100.00;61778.28;5045447;28;20025;-75
2023/05/12 09:53:17;;;;;;;8.13;7.05;;;;;;;-139.84;100.00;61778.28;5042568;28;20030;-74
2023/05/12 09:55:47;;;;;;;7.60;6.13;;;;;;;-139.84;100.00;61778.28;5047424;28;20112;-75
2023/05/12 09:58:15;;;;;;;6.93;6.20;;;;;;;-139.84;100.00;61778.28;5046396;28;20435;-75
2023/05/12 10:00:41;;;;;;;6.93;5.28;;;;;;;-139.84;100.00;61778.28;5045128;28;20051;-75
2023/05/12 10:03:10;;;;;;;8.77;5.03;;;;;;;-139.84;100.00;61778.28;5041936;28;20029;-75
2023/05/12 10:05:42;;;;;;;8.77;4.57;;;;;;;-139.84;100.00;61778.28;5048593;28;20041;-75
2023/05/12 10:08:12;;;;;;;10.10;5.25;;;;;;;-139.84;100.00;61778.28;5041392;28;20064;-74
2023/05/12 10:10:38;;;;;;;8.82;5.07;;;;;;;-139.84;100.00;61778.28;5042358;28;20465;-75
2023/05/12 10:13:05;;;;;;;5.57;5.07;;;;;;;-139.84;100.00;61778.28;5031894;28;20020;-75
2023/05/12 10:15:32;;;;;;;7.65;5.03;;;;;;;-139.84;100.00;61778.28;5030905;28;20388;-73
2023/05/12 10:17:59;;;;;;;6.72;4.53;;;;;;;-139.84;100.00;61778.28;5041710;28;20449;-74
2023/05/12 10:20:25;;;;;;;;;;;;;;;-139.84;100.00;61778.28;5031164;28;20025;-74
2023/05/12 10:22:52;;;;;;;7.80;4.72;;;;;;;-139.84;100.00;61778.28;5045273;28;20268;-73
2023/05/12 10:25:18;;;;;;;7.25;4.00;;;;;;;-139.84;100.00;61778.28;5028322;28;20053;-73
2023/05/12 10:27:44;;;;;;;5.25;3.85;;;;;;;-139.84;100.00;61778.28;5045994;28;20036;-73
2023/05/12 10:30:10;;;;;;;;;;;;;;;-139.84;100.00;61778.28;5045461;28;20526;-73
2023/05/12 10:32:35;;;;;;;6.65;3.78;;;;;;;-139.84;100.00;61778.28;5043385;28;20024;-74
2023/05/12 10:35:12;;;;;;;8.13;3.93;;;;;;;-139.84;100.00;61778.28;5043544;28;20397;-75
2023/05/12 10:37:38;;;;;;;8.60;3.78;;;;;;;-139.84;100.00;61778.28;5040458;28;20093;-75
2023/05/12 10:40:05;;;;;;;;;;;;;;;-139.84;100.00;61778.28;5046069;28;20025;-74
2023/05/12 10:42:42;;;;;;;5.93;3.60;;;;;;;-139.84;100.00;61778.28;5049465;28;20012;-74
2023/05/12 10:45:18;;;;;;;10.48;4.32;;;;;;;-139.84;100.00;61778.28;5047547;28;20039;-74
2023/05/12 10:47:46;;;;;;;4.85;3.70;;;;;;;-139.84;100.00;61778.28;5044686;28;20042;-75
2023/05/12 10:50:12;;;;;;;6.00;4.82;;;;;;;-139.84;100.00;61778.28;5042221;28;20476;-74
2023/05/12 10:52:55;;;;;;;5.20;4.63;;;;;;;-139.84;100.00;61778.28;5023539;28;20039;-73
2023/05/12 10:55:35;;;;;;;7.40;4.53;;;;;;;-139.84;100.00;61778.28;5023953;28;20060;-74
2023/05/12 10:58:05;;;;;;;6.97;3.88;;;;;;;-139.84;100.00;61778.28;5032962;28;20020;-73
2023/05/12 11:00:41;;;;;;;4.53;4.13;;;;;;;-139.84;100.00;61778.28;5034139;28;20455;-74